createdAt,value
2023-03-20T00:01:26.405Z,73.29
2023-03-20T00:03:52.934Z,73.64
2023-03-20T00:06:22.594Z,73.37
2023-03-20T00:08:51.634Z,73.50
2023-03-20T00:11:29.171Z,73.87
2023-03-20T00:14:08.209Z,73.64
2023-03-20T00:16:40.215Z,73.40
2023-03-20T00:19:13.502Z,73.03
2023-03-20T00:21:40.779Z,73.44
2023-03-20T00:24:07.875Z,73.08
2023-03-20T00:26:36.657Z,73.12
2023-03-20T00:29:04.965Z,73.22
2023-03-20T00:31:34.624Z,72.94
2023-03-20T00:34:04.024Z,72.84
2023-03-20T00:36:30.489Z,73.04
2023-03-20T00:38:59.250Z,73.59
2023-03-20T00:41:44.867Z,73.23
2023-03-20T00:44:20.610Z,72.96
2023-03-20T00:46:51.524Z,72.77
2023-03-20T00:49:20.759Z,73.20
2023-03-20T00:51:47.824Z,73.24
2023-03-20T00:54:16.473Z,72.92
2023-03-20T00:56:46.770Z,72.76
2023-03-20T00:59:19.103Z,72.99
2023-03-20T01:01:46.201Z,72.67
2023-03-20T01:04:15.381Z,72.64
2023-03-20T01:06:42.082Z,72.91
2023-03-20T01:09:08.496Z,72.71
2023-03-20T01:11:35.840Z,72.40
2023-03-20T01:14:03.348Z,72.64
2023-03-20T01:16:29.970Z,72.77
2023-03-20T01:18:56.929Z,72.34
2023-03-20T01:21:24.139Z,72.45
2023-03-20T01:23:50.630Z,72.26
2023-03-20T01:26:40.852Z,72.31
2023-03-20T01:29:18.534Z,72.99
2023-03-20T01:31:45.267Z,72.74
2023-03-20T01:34:12.115Z,72.71
2023-03-20T01:36:40.034Z,72.49
2023-03-20T01:39:06.632Z,72.70
2023-03-20T01:41:33.393Z,72.63
2023-03-20T01:44:06.707Z,73.17
2023-03-20T01:46:36.909Z,73.23
2023-03-20T01:49:21.602Z,73.01
2023-03-20T01:51:51.809Z,73.75
2023-03-20T01:54:38.121Z,73.50
2023-03-20T01:57:22.412Z,73.53
2023-03-20T02:00:00.108Z,74.04
2023-03-20T02:02:30.428Z,73.43
2023-03-20T02:05:03.282Z,73.88
2023-03-20T02:07:32.490Z,73.66
2023-03-20T02:10:04.180Z,73.74
2023-03-20T02:12:47.290Z,73.31
2023-03-20T02:15:18.620Z,73.87
2023-03-20T02:18:04.024Z,73.68
2023-03-20T02:20:57.663Z,73.69
2023-03-20T02:23:30.267Z,73.07
2023-03-20T02:26:16.329Z,73.22
2023-03-20T02:29:16.721Z,73.33
2023-03-20T02:31:58.320Z,72.87
2023-03-20T02:35:05.033Z,72.87
2023-03-20T02:37:42.331Z,73.19
2023-03-20T02:40:25.739Z,73.00
2023-03-20T02:43:06.788Z,73.54
2023-03-20T02:45:46.410Z,73.28
2023-03-20T02:48:44.080Z,73.15
2023-03-20T02:51:33.311Z,73.32
2023-03-20T02:54:18.862Z,73.22
2023-03-20T02:56:54.892Z,73.53
2023-03-20T02:59:53.269Z,73.10
2023-03-20T03:02:34.592Z,73.62
2023-03-20T03:05:09.319Z,73.17
2023-03-20T03:07:39.598Z,73.43
2023-03-20T03:10:17.984Z,73.17
2023-03-20T03:12:48.459Z,72.96
2023-03-20T03:15:39.279Z,73.35
2023-03-20T03:18:11.663Z,73.65
2023-03-20T03:20:39.563Z,73.66
2023-03-20T03:23:07.194Z,73.10
2023-03-20T03:25:38.277Z,73.17
2023-03-20T03:28:38.747Z,73.32
2023-03-20T03:31:08.132Z,73.29
2023-03-20T03:33:41.143Z,73.86
2023-03-20T03:36:44.667Z,73.73
2023-03-20T03:39:27.108Z,73.90
2023-03-20T03:42:21.586Z,74.07
2023-03-20T03:45:06.764Z,73.92
2023-03-20T03:47:53.968Z,73.42
2023-03-20T03:50:28.642Z,74.06
2023-03-20T03:53:07.902Z,73.97
2023-03-20T03:55:43.116Z,74.07
2023-03-20T03:58:31.003Z,73.61
2023-03-20T04:01:01.365Z,73.46
2023-03-20T04:03:35.399Z,73.69
2023-03-20T04:06:04.327Z,73.55
2023-03-20T04:08:30.746Z,73.66
2023-03-20T04:10:59.387Z,73.26
2023-03-20T04:13:26.057Z,73.32
2023-03-20T04:15:53.190Z,73.95
2023-03-20T04:18:19.924Z,73.71
2023-03-20T04:20:48.064Z,74.17
2023-03-20T04:23:16.076Z,73.68
2023-03-20T04:25:42.664Z,73.96
2023-03-20T04:28:09.188Z,73.65
2023-03-20T04:30:48.103Z,73.44
2023-03-20T04:33:26.381Z,73.71
2023-03-20T04:36:04.172Z,73.94
2023-03-20T04:38:30.822Z,74.23
2023-03-20T04:40:57.344Z,73.87
2023-03-20T04:43:23.780Z,73.92
2023-03-20T04:45:51.893Z,74.11
2023-03-20T04:48:18.505Z,74.11
2023-03-20T04:50:48.308Z,74.02
2023-03-20T04:53:15.860Z,73.93
2023-03-20T04:55:44.643Z,73.97
2023-03-20T04:58:12.515Z,74.24
2023-03-20T05:00:40.326Z,74.22
2023-03-20T05:03:07.107Z,74.50
2023-03-20T05:05:37.873Z,73.80
2023-03-20T05:08:06.029Z,73.95
2023-03-20T05:10:35.778Z,74.21
2023-03-20T05:13:09.035Z,73.86
2023-03-20T05:15:49.548Z,74.11
2023-03-20T05:18:36.610Z,74.31
2023-03-20T05:21:33.435Z,73.90
2023-03-20T05:23:59.860Z,74.39
2023-03-20T05:26:44.600Z,74.45
2023-03-20T05:29:46.244Z,74.57
2023-03-20T05:32:15.683Z,74.20
2023-03-20T05:35:14.530Z,74.47
2023-03-20T05:37:46.568Z,74.83
2023-03-20T05:40:25.685Z,74.70
2023-03-20T05:43:01.789Z,75.13
2023-03-20T05:45:28.365Z,74.66
2023-03-20T05:48:27.183Z,74.73
2023-03-20T05:51:08.824Z,74.78
2023-03-20T05:54:13.672Z,74.69
2023-03-20T05:57:05.848Z,74.68
2023-03-20T05:59:52.154Z,74.30
2023-03-20T06:02:37.730Z,74.55
2023-03-20T06:05:18.011Z,74.35
2023-03-20T06:07:50.330Z,74.46
2023-03-20T06:10:17.024Z,74.50
2023-03-20T06:12:43.499Z,74.64
2023-03-20T06:15:10.542Z,74.74
2023-03-20T06:17:41.305Z,74.60
2023-03-20T06:20:09.637Z,75.03
2023-03-20T06:22:36.524Z,74.73
2023-03-20T06:25:03.112Z,74.40
2023-03-20T06:27:37.611Z,75.49
2023-03-20T06:30:05.996Z,75.13
2023-03-20T06:32:35.041Z,75.48
2023-03-20T06:35:05.680Z,74.80
2023-03-20T06:37:32.570Z,74.79
2023-03-20T06:40:05.687Z,75.31
2023-03-20T06:42:32.833Z,75.33
2023-03-20T06:45:00.399Z,75.20
2023-03-20T06:47:39.018Z,75.20
2023-03-20T06:50:06.624Z,75.67
2023-03-20T06:52:36.775Z,75.58
2023-03-20T06:55:37.029Z,75.80
2023-03-20T06:58:03.506Z,75.53
2023-03-20T07:00:32.224Z,75.63
2023-03-20T07:03:02.481Z,75.47
2023-03-20T07:05:29.140Z,75.05
2023-03-20T07:07:57.404Z,75.70
2023-03-20T07:10:24.427Z,75.93
2023-03-20T07:12:52.995Z,76.07
2023-03-20T07:15:19.998Z,75.85
2023-03-20T07:17:47.503Z,76.29
2023-03-20T07:20:14.547Z,76.22
2023-03-20T07:22:41.607Z,76.01
2023-03-20T07:25:41.287Z,76.26
2023-03-20T07:28:08.903Z,75.91
2023-03-20T07:30:37.576Z,75.61
2023-03-20T07:33:05.422Z,76.02
2023-03-20T07:35:33.802Z,75.63
2023-03-20T07:38:00.511Z,76.13
2023-03-20T07:40:27.375Z,76.44
2023-03-20T07:42:57.184Z,76.12
2023-03-20T07:45:41.978Z,76.20
2023-03-20T07:48:08.523Z,77.09
2023-03-20T07:50:34.983Z,76.51
2023-03-20T07:53:01.733Z,76.29
2023-03-20T07:55:28.167Z,75.76
2023-03-20T07:57:54.569Z,75.70
2023-03-20T08:00:21.389Z,76.02
2023-03-20T08:02:48.003Z,76.17
2023-03-20T08:05:14.455Z,75.83
2023-03-20T08:07:41.077Z,75.80
2023-03-20T08:10:08.292Z,75.50
2023-03-20T08:12:34.867Z,75.52
2023-03-20T08:15:01.343Z,75.90
2023-03-20T08:17:27.844Z,76.40
2023-03-20T08:19:54.346Z,76.15
2023-03-20T08:22:21.010Z,76.07
2023-03-20T08:24:47.419Z,75.82
2023-03-20T08:27:13.907Z,76.12
2023-03-20T08:29:40.326Z,76.23
2023-03-20T08:32:06.839Z,76.75
2023-03-20T08:34:33.707Z,77.37
2023-03-20T08:37:02.368Z,77.26
2023-03-20T08:39:28.823Z,77.75
2023-03-20T08:41:55.203Z,77.68
2023-03-20T08:44:21.645Z,77.97
2023-03-20T08:46:48.163Z,78.07
2023-03-20T08:49:14.557Z,77.89
2023-03-20T08:51:41.220Z,79.05
2023-03-20T08:54:07.584Z,78.89
2023-03-20T08:56:33.979Z,78.49
2023-03-20T08:59:00.487Z,79.26
2023-03-20T09:01:35.392Z,78.94
2023-03-20T09:04:08.425Z,78.86
2023-03-20T09:06:36.974Z,78.96
2023-03-20T09:09:03.974Z,78.80
2023-03-20T09:11:31.044Z,78.62
2023-03-20T09:13:57.899Z,79.00
2023-03-20T09:16:24.349Z,79.21
2023-03-20T09:18:51.004Z,79.34
2023-03-20T09:21:17.476Z,79.04
2023-03-20T09:23:44.213Z,79.21
2023-03-20T09:26:10.751Z,79.54
2023-03-20T09:28:37.157Z,79.90
2023-03-20T09:31:03.733Z,79.70
2023-03-20T09:33:30.275Z,79.72
2023-03-20T09:35:56.756Z,79.66
2023-03-20T09:38:24.273Z,79.85
2023-03-20T09:40:53.862Z,79.96
2023-03-20T09:43:47.526Z,80.25
2023-03-20T09:46:35.593Z,79.84
2023-03-20T09:49:25.389Z,80.08
2023-03-20T09:51:57.009Z,80.32
2023-03-20T09:54:53.523Z,80.59
2023-03-20T09:57:26.903Z,80.42
2023-03-20T09:59:59.142Z,80.54
2023-03-20T10:02:39.449Z,80.92
2023-03-20T10:05:17.232Z,81.32
2023-03-20T10:07:43.679Z,80.54
2023-03-20T10:10:14.772Z,80.86
2023-03-20T10:12:49.966Z,80.71
2023-03-20T10:15:47.101Z,80.97
2023-03-20T10:18:24.717Z,81.53
2023-03-20T10:21:00.373Z,81.64
2023-03-20T10:23:41.370Z,81.36
2023-03-20T10:26:17.631Z,81.36
2023-03-20T10:28:47.120Z,82.13
2023-03-20T10:31:34.943Z,81.91
2023-03-20T10:34:16.317Z,81.97
2023-03-20T10:37:18.188Z,81.67
2023-03-20T10:40:10.722Z,81.18
2023-03-20T10:42:41.229Z,81.80
2023-03-20T10:45:21.368Z,82.48
2023-03-20T10:47:51.978Z,81.46
2023-03-20T10:50:23.199Z,82.08
2023-03-20T10:52:55.241Z,82.09
2023-03-20T10:55:30.922Z,82.25
2023-03-20T10:58:19.259Z,82.46
2023-03-20T11:00:45.710Z,82.29
2023-03-20T11:03:23.300Z,83.02
2023-03-20T11:06:08.919Z,82.86
2023-03-20T11:08:40.169Z,82.73
2023-03-20T11:11:06.654Z,83.18
2023-03-20T11:13:35.777Z,83.50
2023-03-20T11:16:21.591Z,83.66
2023-03-20T11:18:49.415Z,83.87
2023-03-20T11:21:20.235Z,83.41
2023-03-20T11:23:47.352Z,83.32
2023-03-20T11:26:16.706Z,84.17
2023-03-20T11:29:00.514Z,83.96
2023-03-20T11:31:36.340Z,84.18
2023-03-20T11:34:24.319Z,84.00
2023-03-20T11:37:09.159Z,84.22
2023-03-20T11:39:37.933Z,84.69
2023-03-20T11:42:05.824Z,84.38
2023-03-20T11:44:35.616Z,84.44
2023-03-20T11:47:11.952Z,85.12
2023-03-20T11:49:53.806Z,84.58
2023-03-20T11:52:24.936Z,84.42
2023-03-20T11:54:58.647Z,84.55
2023-03-20T11:57:33.197Z,84.96
2023-03-20T12:00:07.824Z,84.82
2023-03-20T12:02:36.297Z,84.68
2023-03-20T12:05:33.946Z,84.90
2023-03-20T12:08:17.646Z,84.60
2023-03-20T12:10:55.532Z,84.59
2023-03-20T12:13:27.329Z,85.16
2023-03-20T12:16:01.431Z,85.20
2023-03-20T12:18:43.054Z,84.83
2023-03-20T12:21:33.272Z,84.54
2023-03-20T12:24:08.028Z,85.59
2023-03-20T12:27:12.060Z,85.15
2023-03-20T12:29:54.582Z,85.90
2023-03-20T12:33:02.781Z,86.08
2023-03-20T12:35:31.942Z,86.24
2023-03-20T12:37:59.396Z,85.87
2023-03-20T12:40:37.246Z,85.97
2023-03-20T12:43:15.241Z,85.75
2023-03-20T12:45:56.648Z,85.99
2023-03-20T12:48:47.238Z,86.12
2023-03-20T12:51:32.997Z,85.61
2023-03-20T12:54:27.797Z,85.68
2023-03-20T12:57:13.486Z,86.42
2023-03-20T13:00:08.101Z,86.27
2023-03-20T13:02:58.935Z,85.81
2023-03-20T13:05:43.354Z,85.94
2023-03-20T13:08:43.272Z,85.47
2023-03-20T13:11:36.203Z,85.75
2023-03-20T13:14:11.349Z,86.11
2023-03-20T13:16:51.597Z,86.06
2023-03-20T13:19:39.565Z,86.63
2023-03-20T13:22:19.127Z,85.67
2023-03-20T13:24:50.513Z,86.29
2023-03-20T13:27:38.313Z,85.79
2023-03-20T13:30:34.472Z,85.96
2023-03-20T13:33:45.977Z,86.11
2023-03-20T13:36:19.192Z,86.40
2023-03-20T13:38:52.177Z,86.55
2023-03-20T13:41:18.602Z,86.42
2023-03-20T13:43:57.181Z,86.14
2023-03-20T13:46:49.160Z,86.02
2023-03-20T13:49:44.660Z,86.31
2023-03-20T13:52:18.234Z,85.99
2023-03-20T13:54:58.981Z,86.61
2023-03-20T13:57:59.547Z,86.64
2023-03-20T14:00:46.980Z,86.77
2023-03-20T14:03:28.987Z,86.52
2023-03-20T14:05:55.742Z,86.68
2023-03-20T14:08:28.056Z,86.97
2023-03-20T14:11:05.122Z,86.73
2023-03-20T14:13:32.895Z,86.96
2023-03-20T14:16:02.906Z,86.64
2023-03-20T14:18:31.126Z,87.03
2023-03-20T14:21:00.778Z,87.36
2023-03-20T14:23:35.474Z,87.28
2023-03-20T14:26:08.031Z,87.64
2023-03-20T14:28:54.397Z,87.66
2023-03-20T14:31:30.427Z,87.32
2023-03-20T14:34:12.155Z,87.07
2023-03-20T14:36:44.576Z,87.34
2023-03-20T14:39:40.718Z,87.71
2023-03-20T14:42:19.410Z,87.36
2023-03-20T14:45:07.192Z,87.72
2023-03-20T14:47:42.477Z,87.78
2023-03-20T14:50:15.033Z,87.63
2023-03-20T14:52:52.704Z,87.48
2023-03-20T14:55:24.767Z,87.93
2023-03-20T14:57:56.969Z,87.42
2023-03-20T15:00:28.152Z,87.28
2023-03-20T15:03:02.296Z,87.67
2023-03-20T15:05:32.706Z,87.44
2023-03-20T15:08:07.288Z,87.80
2023-03-20T15:10:46.615Z,87.50
2023-03-20T15:13:14.678Z,88.04
2023-03-20T15:15:59.731Z,87.55
2023-03-20T15:18:27.526Z,87.77
2023-03-20T15:20:57.812Z,87.68
2023-03-20T15:23:26.042Z,87.67
2023-03-20T15:25:52.944Z,87.84
2023-03-20T15:28:23.551Z,87.66
2023-03-20T15:30:53.475Z,87.79
2023-03-20T15:33:22.367Z,88.09
2023-03-20T15:35:49.879Z,87.60
2023-03-20T15:38:18.136Z,87.91
2023-03-20T15:40:51.111Z,87.40
2023-03-20T15:43:24.253Z,88.23
2023-03-20T15:46:03.036Z,87.48
2023-03-20T15:48:33.131Z,87.71
2023-03-20T15:51:04.943Z,87.89
2023-03-20T15:53:33.257Z,87.60
2023-03-20T15:56:18.782Z,87.82
2023-03-20T15:58:48.948Z,88.02
2023-03-20T16:01:21.398Z,88.32
2023-03-20T16:03:48.836Z,88.31
2023-03-20T16:06:19.449Z,87.94
2023-03-20T16:09:02.519Z,88.40
2023-03-20T16:11:40.383Z,88.07
2023-03-20T16:14:21.016Z,88.43
2023-03-20T16:16:50.221Z,88.08
2023-03-20T16:19:17.618Z,88.28
2023-03-20T16:21:52.608Z,88.36
2023-03-20T16:24:25.694Z,88.02
2023-03-20T16:26:54.045Z,88.79
2023-03-20T16:29:22.834Z,88.55
2023-03-20T16:31:55.399Z,88.68
2023-03-20T16:34:25.759Z,88.79
2023-03-20T16:36:58.225Z,88.27
2023-03-20T16:39:28.419Z,88.77
2023-03-20T16:42:02.702Z,88.28
2023-03-20T16:44:35.309Z,88.57
2023-03-20T16:47:17.140Z,88.84
2023-03-20T16:49:54.162Z,88.51
2023-03-20T16:52:27.774Z,89.36
2023-03-20T16:54:57.324Z,88.96
2023-03-20T16:57:25.737Z,89.19
2023-03-20T16:59:57.378Z,89.16
2023-03-20T17:02:28.501Z,89.03
2023-03-20T17:04:57.475Z,88.82
2023-03-20T17:07:27.978Z,89.56
2023-03-20T17:09:59.137Z,89.07
2023-03-20T17:12:31.040Z,89.34
2023-03-20T17:14:57.477Z,89.11
2023-03-20T17:17:25.052Z,89.13
2023-03-20T17:19:51.853Z,89.26
2023-03-20T17:22:25.879Z,89.14
2023-03-20T17:24:52.565Z,88.98
2023-03-20T17:27:20.278Z,89.06
2023-03-20T17:29:49.683Z,89.07
2023-03-20T17:32:19.197Z,88.63
2023-03-20T17:34:45.811Z,88.68
2023-03-20T17:37:22.437Z,88.51
2023-03-20T17:39:48.888Z,88.47
2023-03-20T17:42:20.459Z,88.69
2023-03-20T17:44:48.170Z,89.14
2023-03-20T17:47:21.785Z,88.82
2023-03-20T17:49:48.993Z,89.14
2023-03-20T17:52:17.912Z,89.23
2023-03-20T17:54:45.407Z,88.89
2023-03-20T17:57:22.180Z,89.27
2023-03-20T17:59:50.060Z,88.86
2023-03-20T18:02:20.813Z,89.24
2023-03-20T18:04:47.337Z,89.09
2023-03-20T18:07:14.861Z,88.78
2023-03-20T18:09:42.703Z,89.11
2023-03-20T18:12:12.575Z,89.00
2023-03-20T18:14:40.659Z,89.59
2023-03-20T18:17:07.367Z,89.23
2023-03-20T18:19:34.609Z,88.82
2023-03-20T18:22:01.144Z,88.91
2023-03-20T18:24:27.601Z,89.31
2023-03-20T18:26:54.550Z,89.57
2023-03-20T18:29:21.468Z,89.83
2023-03-20T18:31:49.108Z,89.72
2023-03-20T18:34:16.298Z,89.30
2023-03-20T18:36:43.797Z,89.07
2023-03-20T18:39:16.989Z,89.17
2023-03-20T18:41:44.017Z,89.12
2023-03-20T18:44:10.693Z,88.98
2023-03-20T18:46:37.206Z,89.07
2023-03-20T18:49:03.756Z,89.08
2023-03-20T18:51:30.366Z,88.93
2023-03-20T18:53:56.792Z,89.46
2023-03-20T18:56:26.237Z,88.69
2023-03-20T18:58:53.941Z,89.22
2023-03-20T19:01:21.353Z,89.58
2023-03-20T19:03:48.193Z,88.94
2023-03-20T19:06:16.428Z,89.20
2023-03-20T19:08:43.968Z,89.69
2023-03-20T19:11:15.071Z,89.49
2023-03-20T19:13:49.164Z,89.56
2023-03-20T19:16:34.861Z,89.05
2023-03-20T19:19:03.901Z,88.74
2023-03-20T19:21:32.136Z,89.00
2023-03-20T19:24:01.260Z,89.39
2023-03-20T19:26:29.662Z,89.41
2023-03-20T19:28:58.566Z,89.18
2023-03-20T19:31:25.925Z,89.44
2023-03-20T19:33:53.191Z,89.74
2023-03-20T19:36:32.018Z,89.55
2023-03-20T19:39:00.295Z,89.74
2023-03-20T19:41:28.500Z,89.52
2023-03-20T19:43:55.981Z,89.71
2023-03-20T19:46:41.403Z,90.06
2023-03-20T19:49:18.131Z,89.99
2023-03-20T19:51:45.284Z,89.75
2023-03-20T19:54:12.034Z,89.89
2023-03-20T19:56:38.483Z,89.62
2023-03-20T19:59:05.887Z,89.42
2023-03-20T20:01:32.439Z,89.35
2023-03-20T20:03:59.096Z,89.74
2023-03-20T20:06:31.286Z,89.81
2023-03-20T20:08:59.248Z,90.12
2023-03-20T20:11:25.642Z,90.19
2023-03-20T20:14:09.357Z,89.96
2023-03-20T20:16:39.363Z,89.68
2023-03-20T20:19:06.238Z,90.13
2023-03-20T20:24:19.141Z,89.98
2023-03-20T20:26:55.427Z,89.72
2023-03-20T20:29:26.789Z,89.72
2023-03-20T20:31:53.395Z,90.02
2023-03-20T20:37:53.812Z,90.21
2023-03-20T20:39:53.264Z,89.75
2023-03-20T20:42:20.499Z,89.74
2023-03-20T20:44:47.431Z,89.84
2023-03-20T20:47:15.232Z,90.17
2023-03-20T20:49:42.079Z,90.30
2023-03-20T20:52:09.428Z,90.25
2023-03-20T20:54:36.061Z,89.90
2023-03-20T20:57:02.853Z,90.48
2023-03-20T20:59:29.477Z,90.20
2023-03-20T21:01:56.431Z,89.60
2023-03-20T21:04:22.993Z,90.13
2023-03-20T21:07:09.830Z,90.25
2023-03-20T21:09:35.808Z,90.45
2023-03-20T21:12:03.553Z,89.70
2023-03-20T21:14:30.311Z,90.07
2023-03-20T21:17:00.815Z,90.25
2023-03-20T21:19:29.379Z,89.95
2023-03-20T21:21:55.746Z,90.08
2023-03-20T21:24:32.020Z,90.00
2023-03-20T21:26:59.787Z,90.10
2023-03-20T21:29:26.631Z,89.70
2023-03-20T21:31:53.358Z,90.33
2023-03-20T21:34:19.930Z,90.07
2023-03-20T21:36:49.098Z,90.44
2023-03-20T21:39:17.004Z,90.27
2023-03-20T21:41:43.801Z,90.54
2023-03-20T21:44:17.115Z,90.25
2023-03-20T21:47:33.259Z,90.77
2023-03-20T21:58:33.184Z,90.24
2023-03-20T22:04:37.623Z,90.77
2023-03-20T22:07:07.244Z,90.78
2023-03-20T22:12:28.219Z,90.69
2023-03-20T22:23:43.363Z,90.75
2023-03-20T22:26:33.975Z,90.53
2023-03-20T22:45:11.443Z,90.48
2023-03-20T22:47:38.080Z,90.38
2023-03-20T22:50:05.265Z,90.41
2023-03-20T22:52:47.635Z,90.57
2023-03-20T22:55:17.305Z,90.58
2023-03-20T22:57:56.140Z,90.02
2023-03-20T23:00:30.528Z,90.35
2023-03-20T23:03:06.650Z,89.79
2023-03-20T23:05:40.811Z,90.28
2023-03-20T23:08:08.564Z,90.25
2023-03-20T23:10:37.771Z,90.08
2023-03-20T23:13:04.803Z,89.86
2023-03-20T23:15:31.890Z,89.93
2023-03-20T23:17:58.455Z,89.89
2023-03-20T23:20:25.308Z,90.20
2023-03-20T23:22:51.733Z,90.34
2023-03-20T23:25:36.081Z,89.87
2023-03-20T23:28:06.136Z,90.00
2023-03-20T23:30:41.990Z,89.62
2023-03-20T23:33:11.591Z,89.95
2023-03-20T23:35:38.103Z,89.84
2023-03-20T23:38:04.628Z,90.06
2023-03-20T23:40:31.082Z,90.27
2023-03-20T23:42:57.599Z,89.67
2023-03-20T23:45:24.073Z,89.45
2023-03-20T23:47:50.933Z,90.04
2023-03-20T23:50:27.711Z,89.67
2023-03-20T23:53:06.478Z,89.97
2023-03-20T23:55:40.816Z,89.49
2023-03-20T23:58:07.609Z,90.02
